sensor_id;sensor_type;location;lat;lon;timestamp;temperature;humidity
18321;DHT22;54904;54.350;18.664;2023-05-10T00:02:05;15.50;46.10
18321;DHT22;54904;54.350;18.664;2023-05-10T00:04:32;15.50;46.20
18321;DHT22;54904;54.350;18.664;2023-05-10T00:06:59;15.50;46.20
18321;DHT22;54904;54.350;18.664;2023-05-10T00:09:27;15.40;46.20
18321;DHT22;54904;54.350;18.664;2023-05-10T00:11:55;15.40;46.20
18321;DHT22;54904;54.350;18.664;2023-05-10T00:14:24;15.40;46.40
18321;DHT22;54904;54.350;18.664;2023-05-10T00:16:51;15.40;46.50
18321;DHT22;54904;54.350;18.664;2023-05-10T00:19:18;15.40;46.40
18321;DHT22;54904;54.350;18.664;2023-05-10T00:21:45;15.40;46.50
18321;DHT22;54904;54.350;18.664;2023-05-10T00:24:12;15.40;46.60
18321;DHT22;54904;54.350;18.664;2023-05-10T00:26:39;15.30;47.20
18321;DHT22;54904;54.350;18.664;2023-05-10T00:29:09;15.30;46.70
18321;DHT22;54904;54.350;18.664;2023-05-10T00:31:36;15.30;46.80
18321;DHT22;54904;54.350;18.664;2023-05-10T00:34:03;15.20;46.80
18321;DHT22;54904;54.350;18.664;2023-05-10T00:36:30;15.20;47.00
18321;DHT22;54904;54.350;18.664;2023-05-10T00:38:58;15.20;47.00
18321;DHT22;54904;54.350;18.664;2023-05-10T00:41:25;15.10;47.00
18321;DHT22;54904;54.350;18.664;2023-05-10T00:43:58;15.10;47.20
18321;DHT22;54904;54.350;18.664;2023-05-10T00:46:27;15.00;47.30
18321;DHT22;54904;54.350;18.664;2023-05-10T00:48:55;15.00;47.20
18321;DHT22;54904;54.350;18.664;2023-05-10T00:51:25;14.90;47.30
18321;DHT22;54904;54.350;18.664;2023-05-10T00:53:54;14.90;47.50
18321;DHT22;54904;54.350;18.664;2023-05-10T00:56:21;14.90;47.50
18321;DHT22;54904;54.350;18.664;2023-05-10T00:58:50;14.90;47.40
18321;DHT22;54904;54.350;18.664;2023-05-10T01:01:17;15.00;47.50
18321;DHT22;54904;54.350;18.664;2023-05-10T01:03:46;15.00;47.50
18321;DHT22;54904;54.350;18.664;2023-05-10T01:06:15;14.90;47.50
18321;DHT22;54904;54.350;18.664;2023-05-10T01:08:43;14.90;47.60
18321;DHT22;54904;54.350;18.664;2023-05-10T01:11:11;14.90;47.70
18321;DHT22;54904;54.350;18.664;2023-05-10T01:13:42;14.80;47.70
18321;DHT22;54904;54.350;18.664;2023-05-10T01:16:10;14.70;47.70
18321;DHT22;54904;54.350;18.664;2023-05-10T01:18:39;14.80;47.90
18321;DHT22;54904;54.350;18.664;2023-05-10T01:21:21;14.70;47.90
18321;DHT22;54904;54.350;18.664;2023-05-10T01:24:06;14.70;48.00
18321;DHT22;54904;54.350;18.664;2023-05-10T01:27:02;14.70;48.00
18321;DHT22;54904;54.350;18.664;2023-05-10T01:29:58;14.60;48.10
18321;DHT22;54904;54.350;18.664;2023-05-10T01:32:31;14.60;48.20
18321;DHT22;54904;54.350;18.664;2023-05-10T01:35:04;14.50;48.30
18321;DHT22;54904;54.350;18.664;2023-05-10T01:37:40;14.50;48.30
18321;DHT22;54904;54.350;18.664;2023-05-10T01:40:16;14.50;48.30
18321;DHT22;54904;54.350;18.664;2023-05-10T01:42:49;14.50;48.50
18321;DHT22;54904;54.350;18.664;2023-05-10T01:45:24;14.40;48.50
18321;DHT22;54904;54.350;18.664;2023-05-10T01:48:02;14.40;48.50
18321;DHT22;54904;54.350;18.664;2023-05-10T01:50:32;14.40;48.60
18321;DHT22;54904;54.350;18.664;2023-05-10T01:53:02;14.40;48.60
18321;DHT22;54904;54.350;18.664;2023-05-10T01:55:32;14.30;48.60
18321;DHT22;54904;54.350;18.664;2023-05-10T01:58:04;14.30;48.70
18321;DHT22;54904;54.350;18.664;2023-05-10T02:00:33;14.20;48.80
18321;DHT22;54904;54.350;18.664;2023-05-10T02:03:06;14.10;48.90
18321;DHT22;54904;54.350;18.664;2023-05-10T02:05:34;14.10;49.00
18321;DHT22;54904;54.350;18.664;2023-05-10T02:08:05;14.10;49.10
18321;DHT22;54904;54.350;18.664;2023-05-10T02:10:33;14.10;49.20
18321;DHT22;54904;54.350;18.664;2023-05-10T02:13:02;14.10;49.20
18321;DHT22;54904;54.350;18.664;2023-05-10T02:15:30;14.10;49.20
18321;DHT22;54904;54.350;18.664;2023-05-10T02:17:59;14.10;49.20
18321;DHT22;54904;54.350;18.664;2023-05-10T02:20:31;14.10;49.20
18321;DHT22;54904;54.350;18.664;2023-05-10T02:22:59;14.10;49.20
18321;DHT22;54904;54.350;18.664;2023-05-10T02:25:30;14.10;49.20
18321;DHT22;54904;54.350;18.664;2023-05-10T02:28:01;14.10;49.20
18321;DHT22;54904;54.350;18.664;2023-05-10T02:30:31;14.10;49.20
18321;DHT22;54904;54.350;18.664;2023-05-10T02:32:58;14.00;49.30
18321;DHT22;54904;54.350;18.664;2023-05-10T02:35:29;14.00;49.30
18321;DHT22;54904;54.350;18.664;2023-05-10T02:37:57;14.00;49.40
18321;DHT22;54904;54.350;18.664;2023-05-10T02:40:26;14.00;49.50
18321;DHT22;54904;54.350;18.664;2023-05-10T02:42:56;14.00;49.60
18321;DHT22;54904;54.350;18.664;2023-05-10T02:45:27;13.90;49.60
18321;DHT22;54904;54.350;18.664;2023-05-10T02:47:56;13.80;49.70
18321;DHT22;54904;54.350;18.664;2023-05-10T02:50:26;13.80;49.70
18321;DHT22;54904;54.350;18.664;2023-05-10T02:53:00;13.80;49.80
18321;DHT22;54904;54.350;18.664;2023-05-10T02:55:32;13.70;49.80
18321;DHT22;54904;54.350;18.664;2023-05-10T02:58:01;13.70;49.80
18321;DHT22;54904;54.350;18.664;2023-05-10T03:00:29;13.70;49.90
18321;DHT22;54904;54.350;18.664;2023-05-10T03:02:56;13.80;50.00
18321;DHT22;54904;54.350;18.664;2023-05-10T03:05:24;13.80;50.00
18321;DHT22;54904;54.350;18.664;2023-05-10T03:07:52;13.80;50.00
18321;DHT22;54904;54.350;18.664;2023-05-10T03:10:25;13.80;50.10
18321;DHT22;54904;54.350;18.664;2023-05-10T03:13:07;13.80;50.10
18321;DHT22;54904;54.350;18.664;2023-05-10T03:15:49;13.80;50.20
18321;DHT22;54904;54.350;18.664;2023-05-10T03:18:22;13.80;50.20
18321;DHT22;54904;54.350;18.664;2023-05-10T03:20:51;13.80;50.20
18321;DHT22;54904;54.350;18.664;2023-05-10T03:23:24;13.80;50.20
18321;DHT22;54904;54.350;18.664;2023-05-10T03:25:55;13.80;50.40
18321;DHT22;54904;54.350;18.664;2023-05-10T03:28:25;13.70;50.40
18321;DHT22;54904;54.350;18.664;2023-05-10T03:30:52;13.70;50.50
18321;DHT22;54904;54.350;18.664;2023-05-10T03:33:20;13.60;50.50
18321;DHT22;54904;54.350;18.664;2023-05-10T03:35:47;13.70;50.60
18321;DHT22;54904;54.350;18.664;2023-05-10T03:38:15;13.60;50.60
18321;DHT22;54904;54.350;18.664;2023-05-10T03:40:42;13.60;50.70
18321;DHT22;54904;54.350;18.664;2023-05-10T03:43:10;13.60;50.70
18321;DHT22;54904;54.350;18.664;2023-05-10T03:45:37;13.60;50.70
18321;DHT22;54904;54.350;18.664;2023-05-10T03:48:05;13.60;50.60
18321;DHT22;54904;54.350;18.664;2023-05-10T03:50:33;13.70;50.60
18321;DHT22;54904;54.350;18.664;2023-05-10T03:53:00;13.70;50.50
18321;DHT22;54904;54.350;18.664;2023-05-10T03:55:28;13.70;50.50
18321;DHT22;54904;54.350;18.664;2023-05-10T03:57:56;13.60;50.50
18321;DHT22;54904;54.350;18.664;2023-05-10T04:00:25;13.60;50.50
18321;DHT22;54904;54.350;18.664;2023-05-10T04:02:54;13.60;50.50
18321;DHT22;54904;54.350;18.664;2023-05-10T04:05:22;13.60;50.50
18321;DHT22;54904;54.350;18.664;2023-05-10T04:07:52;13.60;50.50
18321;DHT22;54904;54.350;18.664;2023-05-10T04:10:19;13.60;50.50
18321;DHT22;54904;54.350;18.664;2023-05-10T04:12:46;13.60;50.50
18321;DHT22;54904;54.350;18.664;2023-05-10T04:15:14;13.50;51.00
18321;DHT22;54904;54.350;18.664;2023-05-10T04:17:42;13.50;50.50
18321;DHT22;54904;54.350;18.664;2023-05-10T04:20:10;13.60;50.60
18321;DHT22;54904;54.350;18.664;2023-05-10T04:22:37;13.60;50.50
18321;DHT22;54904;54.350;18.664;2023-05-10T04:25:06;13.60;50.60
18321;DHT22;54904;54.350;18.664;2023-05-10T04:27:33;13.50;50.50
18321;DHT22;54904;54.350;18.664;2023-05-10T04:30:01;13.50;50.60
18321;DHT22;54904;54.350;18.664;2023-05-10T04:32:28;13.50;50.60
18321;DHT22;54904;54.350;18.664;2023-05-10T04:34:56;13.50;50.70
18321;DHT22;54904;54.350;18.664;2023-05-10T04:37:23;13.50;50.70
18321;DHT22;54904;54.350;18.664;2023-05-10T04:42:17;13.50;50.70
18321;DHT22;54904;54.350;18.664;2023-05-10T04:44:44;13.60;50.80
18321;DHT22;54904;54.350;18.664;2023-05-10T04:47:11;13.60;50.80
18321;DHT22;54904;54.350;18.664;2023-05-10T04:49:40;13.70;50.90
18321;DHT22;54904;54.350;18.664;2023-05-10T04:52:08;13.70;50.90
18321;DHT22;54904;54.350;18.664;2023-05-10T04:54:35;13.70;50.90
18321;DHT22;54904;54.350;18.664;2023-05-10T04:57:02;13.70;50.90
18321;DHT22;54904;54.350;18.664;2023-05-10T04:59:30;13.80;51.10
18321;DHT22;54904;54.350;18.664;2023-05-10T05:01:57;13.80;51.10
18321;DHT22;54904;54.350;18.664;2023-05-10T05:04:24;13.80;51.20
18321;DHT22;54904;54.350;18.664;2023-05-10T05:06:51;13.80;51.20
18321;DHT22;54904;54.350;18.664;2023-05-10T05:09:19;13.90;51.30
18321;DHT22;54904;54.350;18.664;2023-05-10T05:11:46;13.90;51.20
18321;DHT22;54904;54.350;18.664;2023-05-10T05:14:14;13.90;51.20
18321;DHT22;54904;54.350;18.664;2023-05-10T05:16:41;13.90;51.20
18321;DHT22;54904;54.350;18.664;2023-05-10T05:19:08;13.90;51.30
18321;DHT22;54904;54.350;18.664;2023-05-10T05:21:35;14.00;51.30
18321;DHT22;54904;54.350;18.664;2023-05-10T05:24:03;14.00;51.30
18321;DHT22;54904;54.350;18.664;2023-05-10T05:26:31;14.00;51.30
18321;DHT22;54904;54.350;18.664;2023-05-10T05:28:58;14.00;51.40
18321;DHT22;54904;54.350;18.664;2023-05-10T05:31:25;14.10;51.50
18321;DHT22;54904;54.350;18.664;2023-05-10T05:33:52;14.10;51.50
18321;DHT22;54904;54.350;18.664;2023-05-10T05:36:19;14.10;51.50
18321;DHT22;54904;54.350;18.664;2023-05-10T05:38:47;14.10;51.60
18321;DHT22;54904;54.350;18.664;2023-05-10T05:41:14;14.20;51.80
18321;DHT22;54904;54.350;18.664;2023-05-10T05:43:42;14.20;51.90
18321;DHT22;54904;54.350;18.664;2023-05-10T05:46:09;14.20;52.00
18321;DHT22;54904;54.350;18.664;2023-05-10T05:48:36;14.30;52.00
18321;DHT22;54904;54.350;18.664;2023-05-10T05:51:03;14.30;52.00
18321;DHT22;54904;54.350;18.664;2023-05-10T05:53:30;14.40;52.00
18321;DHT22;54904;54.350;18.664;2023-05-10T05:55:58;14.40;52.20
18321;DHT22;54904;54.350;18.664;2023-05-10T05:58:25;14.40;52.00
18321;DHT22;54904;54.350;18.664;2023-05-10T06:00:55;14.50;52.00
18321;DHT22;54904;54.350;18.664;2023-05-10T06:03:22;14.50;51.70
18321;DHT22;54904;54.350;18.664;2023-05-10T06:05:49;14.50;51.50
18321;DHT22;54904;54.350;18.664;2023-05-10T06:08:16;14.50;51.30
18321;DHT22;54904;54.350;18.664;2023-05-10T06:10:43;14.60;51.20
18321;DHT22;54904;54.350;18.664;2023-05-10T06:13:11;14.60;51.20
18321;DHT22;54904;54.350;18.664;2023-05-10T06:15:38;14.70;51.30
18321;DHT22;54904;54.350;18.664;2023-05-10T06:18:06;14.70;51.30
18321;DHT22;54904;54.350;18.664;2023-05-10T06:20:33;14.80;51.40
18321;DHT22;54904;54.350;18.664;2023-05-10T06:23:01;14.80;51.20
18321;DHT22;54904;54.350;18.664;2023-05-10T06:25:28;14.80;51.10
18321;DHT22;54904;54.350;18.664;2023-05-10T06:27:55;14.80;50.80
18321;DHT22;54904;54.350;18.664;2023-05-10T06:30:24;14.90;51.50
18321;DHT22;54904;54.350;18.664;2023-05-10T06:32:54;14.90;51.00
18321;DHT22;54904;54.350;18.664;2023-05-10T06:35:23;15.00;50.90
18321;DHT22;54904;54.350;18.664;2023-05-10T06:37:50;15.10;50.90
18321;DHT22;54904;54.350;18.664;2023-05-10T06:40:18;15.20;51.10
18321;DHT22;54904;54.350;18.664;2023-05-10T06:42:45;15.30;51.10
18321;DHT22;54904;54.350;18.664;2023-05-10T06:45:13;15.40;51.10
18321;DHT22;54904;54.350;18.664;2023-05-10T06:47:41;15.40;51.00
18321;DHT22;54904;54.350;18.664;2023-05-10T06:50:08;15.50;50.90
18321;DHT22;54904;54.350;18.664;2023-05-10T06:52:38;15.60;50.90
18321;DHT22;54904;54.350;18.664;2023-05-10T06:55:06;15.60;51.00
18321;DHT22;54904;54.350;18.664;2023-05-10T06:57:34;15.70;51.00
18321;DHT22;54904;54.350;18.664;2023-05-10T07:00:02;15.80;51.00
18321;DHT22;54904;54.350;18.664;2023-05-10T07:02:30;15.80;50.80
18321;DHT22;54904;54.350;18.664;2023-05-10T07:04:57;15.90;50.60
18321;DHT22;54904;54.350;18.664;2023-05-10T07:07:26;16.00;50.60
18321;DHT22;54904;54.350;18.664;2023-05-10T07:09:55;16.10;50.50
18321;DHT22;54904;54.350;18.664;2023-05-10T07:12:23;16.20;50.10
18321;DHT22;54904;54.350;18.664;2023-05-10T07:14:50;16.30;50.20
18321;DHT22;54904;54.350;18.664;2023-05-10T07:17:17;16.40;50.30
18321;DHT22;54904;54.350;18.664;2023-05-10T07:19:45;16.50;50.00
18321;DHT22;54904;54.350;18.664;2023-05-10T07:22:12;16.60;49.30
18321;DHT22;54904;54.350;18.664;2023-05-10T07:24:39;16.60;48.30
18321;DHT22;54904;54.350;18.664;2023-05-10T07:27:07;16.70;48.00
18321;DHT22;54904;54.350;18.664;2023-05-10T07:29:34;16.80;47.50
18321;DHT22;54904;54.350;18.664;2023-05-10T07:32:01;16.80;47.40
18321;DHT22;54904;54.350;18.664;2023-05-10T07:34:29;16.90;46.90
18321;DHT22;54904;54.350;18.664;2023-05-10T07:36:58;16.90;46.90
18321;DHT22;54904;54.350;18.664;2023-05-10T07:39:25;17.00;46.70
18321;DHT22;54904;54.350;18.664;2023-05-10T07:41:53;17.10;46.60
18321;DHT22;54904;54.350;18.664;2023-05-10T07:44:21;17.10;46.30
18321;DHT22;54904;54.350;18.664;2023-05-10T07:46:48;17.20;46.50
18321;DHT22;54904;54.350;18.664;2023-05-10T07:49:16;17.30;46.40
18321;DHT22;54904;54.350;18.664;2023-05-10T07:51:43;17.40;45.80
18321;DHT22;54904;54.350;18.664;2023-05-10T07:54:10;17.50;45.90
18321;DHT22;54904;54.350;18.664;2023-05-10T07:56:38;17.50;45.90
18321;DHT22;54904;54.350;18.664;2023-05-10T07:59:07;17.70;46.00
18321;DHT22;54904;54.350;18.664;2023-05-10T08:01:36;17.80;45.90
18321;DHT22;54904;54.350;18.664;2023-05-10T08:04:03;17.90;45.40
18321;DHT22;54904;54.350;18.664;2023-05-10T08:06:32;17.90;45.00
18321;DHT22;54904;54.350;18.664;2023-05-10T08:08:59;18.00;44.70
18321;DHT22;54904;54.350;18.664;2023-05-10T08:11:26;18.00;44.20
18321;DHT22;54904;54.350;18.664;2023-05-10T08:13:54;18.10;44.20
18321;DHT22;54904;54.350;18.664;2023-05-10T08:16:21;18.10;44.00
18321;DHT22;54904;54.350;18.664;2023-05-10T08:18:50;18.20;44.10
18321;DHT22;54904;54.350;18.664;2023-05-10T08:21:17;18.30;44.20
18321;DHT22;54904;54.350;18.664;2023-05-10T08:23:44;18.40;43.40
18321;DHT22;54904;54.350;18.664;2023-05-10T08:26:11;18.50;43.90
18321;DHT22;54904;54.350;18.664;2023-05-10T08:28:38;18.50;42.60
18321;DHT22;54904;54.350;18.664;2023-05-10T08:31:05;18.50;42.10
18321;DHT22;54904;54.350;18.664;2023-05-10T08:33:32;18.60;42.30
18321;DHT22;54904;54.350;18.664;2023-05-10T08:36:01;18.60;42.10
18321;DHT22;54904;54.350;18.664;2023-05-10T08:38:28;18.60;42.10
18321;DHT22;54904;54.350;18.664;2023-05-10T08:40:55;18.70;41.70
18321;DHT22;54904;54.350;18.664;2023-05-10T08:43:27;18.80;41.10
18321;DHT22;54904;54.350;18.664;2023-05-10T08:45:55;18.80;40.20
18321;DHT22;54904;54.350;18.664;2023-05-10T08:48:24;18.70;39.50
18321;DHT22;54904;54.350;18.664;2023-05-10T08:50:53;18.80;39.40
18321;DHT22;54904;54.350;18.664;2023-05-10T08:53:24;18.80;39.40
18321;DHT22;54904;54.350;18.664;2023-05-10T08:55:53;18.80;39.50
18321;DHT22;54904;54.350;18.664;2023-05-10T08:58:20;18.90;39.10
18321;DHT22;54904;54.350;18.664;2023-05-10T09:00:49;18.90;39.20
18321;DHT22;54904;54.350;18.664;2023-05-10T09:03:17;19.00;39.30
18321;DHT22;54904;54.350;18.664;2023-05-10T09:05:45;19.10;38.80
18321;DHT22;54904;54.350;18.664;2023-05-10T09:08:12;19.10;38.40
18321;DHT22;54904;54.350;18.664;2023-05-10T09:10:44;19.20;38.80
18321;DHT22;54904;54.350;18.664;2023-05-10T09:13:14;19.20;39.10
18321;DHT22;54904;54.350;18.664;2023-05-10T09:15:42;19.30;39.30
18321;DHT22;54904;54.350;18.664;2023-05-10T09:18:09;19.40;39.20
18321;DHT22;54904;54.350;18.664;2023-05-10T09:20:36;19.40;39.20
18321;DHT22;54904;54.350;18.664;2023-05-10T09:23:03;19.70;50.70
18321;DHT22;54904;54.350;18.664;2023-05-10T09:25:31;19.50;38.70
18321;DHT22;54904;54.350;18.664;2023-05-10T09:28:00;19.60;38.70
18321;DHT22;54904;54.350;18.664;2023-05-10T09:30:28;19.60;38.80
18321;DHT22;54904;54.350;18.664;2023-05-10T09:32:57;19.70;38.90
18321;DHT22;54904;54.350;18.664;2023-05-10T09:35:25;19.80;38.70
18321;DHT22;54904;54.350;18.664;2023-05-10T09:37:55;19.80;38.30
18321;DHT22;54904;54.350;18.664;2023-05-10T09:40:24;19.80;37.90
18321;DHT22;54904;54.350;18.664;2023-05-10T09:42:53;19.90;38.10
18321;DHT22;54904;54.350;18.664;2023-05-10T09:45:23;19.90;38.10
18321;DHT22;54904;54.350;18.664;2023-05-10T09:47:50;20.00;37.80
18321;DHT22;54904;54.350;18.664;2023-05-10T09:50:18;20.10;38.10
18321;DHT22;54904;54.350;18.664;2023-05-10T09:52:47;20.10;38.30
18321;DHT22;54904;54.350;18.664;2023-05-10T09:55:15;20.20;37.50
18321;DHT22;54904;54.350;18.664;2023-05-10T09:57:43;20.20;37.20
18321;DHT22;54904;54.350;18.664;2023-05-10T10:00:10;19.90;50.00
18321;DHT22;54904;54.350;18.664;2023-05-10T10:02:45;20.20;36.60
18321;DHT22;54904;54.350;18.664;2023-05-10T10:05:13;20.00;47.10
18321;DHT22;54904;54.350;18.664;2023-05-10T10:07:40;20.20;37.10
18321;DHT22;54904;54.350;18.664;2023-05-10T10:10:08;20.20;37.10
18321;DHT22;54904;54.350;18.664;2023-05-10T10:12:39;20.30;37.40
18321;DHT22;54904;54.350;18.664;2023-05-10T10:15:09;20.80;50.70
18321;DHT22;54904;54.350;18.664;2023-05-10T10:17:37;20.30;36.60
18321;DHT22;54904;54.350;18.664;2023-05-10T10:20:07;20.40;36.70
18321;DHT22;54904;54.350;18.664;2023-05-10T10:22:36;20.60;50.90
18321;DHT22;54904;54.350;18.664;2023-05-10T10:25:04;20.40;36.40
18321;DHT22;54904;54.350;18.664;2023-05-10T10:27:39;20.40;36.40
18321;DHT22;54904;54.350;18.664;2023-05-10T10:30:16;20.40;36.40
18321;DHT22;54904;54.350;18.664;2023-05-10T10:33:13;20.50;36.50
18321;DHT22;54904;54.350;18.664;2023-05-10T10:35:45;20.50;36.40
18321;DHT22;54904;54.350;18.664;2023-05-10T10:38:13;21.00;41.40
18321;DHT22;54904;54.350;18.664;2023-05-10T10:40:41;20.50;35.40
18321;DHT22;54904;54.350;18.664;2023-05-10T10:43:25;20.60;49.10
18321;DHT22;54904;54.350;18.664;2023-05-10T10:46:10;20.60;36.00
18321;DHT22;54904;54.350;18.664;2023-05-10T10:48:39;20.60;35.60
18321;DHT22;54904;54.350;18.664;2023-05-10T10:51:07;20.80;48.90
18321;DHT22;54904;54.350;18.664;2023-05-10T10:53:37;20.70;36.10
18321;DHT22;54904;54.350;18.664;2023-05-10T10:56:06;20.80;35.90
18321;DHT22;54904;54.350;18.664;2023-05-10T10:58:36;20.70;35.60
18321;DHT22;54904;54.350;18.664;2023-05-10T11:01:11;20.80;35.60
18321;DHT22;54904;54.350;18.664;2023-05-10T11:03:39;21.00;47.00
18321;DHT22;54904;54.350;18.664;2023-05-10T11:06:07;20.80;35.20
18321;DHT22;54904;54.350;18.664;2023-05-10T11:08:41;20.80;34.60
18321;DHT22;54904;54.350;18.664;2023-05-10T11:11:14;20.80;47.70
18321;DHT22;54904;54.350;18.664;2023-05-10T11:13:43;20.90;35.40
18321;DHT22;54904;54.350;18.664;2023-05-10T11:16:12;21.00;35.60
18321;DHT22;54904;54.350;18.664;2023-05-10T11:18:40;21.00;35.20
18321;DHT22;54904;54.350;18.664;2023-05-10T11:21:09;21.10;35.00
18321;DHT22;54904;54.350;18.664;2023-05-10T11:23:49;21.20;34.90
18321;DHT22;54904;54.350;18.664;2023-05-10T11:26:17;21.30;35.00
18321;DHT22;54904;54.350;18.664;2023-05-10T11:28:49;21.20;34.20
18321;DHT22;54904;54.350;18.664;2023-05-10T11:31:16;21.20;34.30
18321;DHT22;54904;54.350;18.664;2023-05-10T11:33:43;21.20;34.70
18321;DHT22;54904;54.350;18.664;2023-05-10T11:36:14;21.20;34.90
18321;DHT22;54904;54.350;18.664;2023-05-10T11:38:41;21.20;34.60
18321;DHT22;54904;54.350;18.664;2023-05-10T11:41:08;21.10;34.40
18321;DHT22;54904;54.350;18.664;2023-05-10T11:43:37;21.20;34.60
18321;DHT22;54904;54.350;18.664;2023-05-10T11:46:05;21.20;34.90
18321;DHT22;54904;54.350;18.664;2023-05-10T11:48:33;21.30;34.60
18321;DHT22;54904;54.350;18.664;2023-05-10T11:51:01;21.30;34.50
18321;DHT22;54904;54.350;18.664;2023-05-10T11:53:33;21.30;34.40
18321;DHT22;54904;54.350;18.664;2023-05-10T11:56:03;21.30;35.10
18321;DHT22;54904;54.350;18.664;2023-05-10T11:58:31;21.40;35.10
18321;DHT22;54904;54.350;18.664;2023-05-10T12:00:59;21.40;34.80
18321;DHT22;54904;54.350;18.664;2023-05-10T12:03:26;21.50;35.10
18321;DHT22;54904;54.350;18.664;2023-05-10T12:05:54;21.50;35.20
18321;DHT22;54904;54.350;18.664;2023-05-10T12:08:22;21.50;35.00
18321;DHT22;54904;54.350;18.664;2023-05-10T12:10:51;21.60;35.40
18321;DHT22;54904;54.350;18.664;2023-05-10T12:13:20;21.60;35.50
18321;DHT22;54904;54.350;18.664;2023-05-10T12:15:47;21.60;35.50
18321;DHT22;54904;54.350;18.664;2023-05-10T12:18:14;21.70;35.50
18321;DHT22;54904;54.350;18.664;2023-05-10T12:20:41;21.70;35.20
18321;DHT22;54904;54.350;18.664;2023-05-10T12:23:09;21.70;35.90
18321;DHT22;54904;54.350;18.664;2023-05-10T12:25:37;21.70;36.40
18321;DHT22;54904;54.350;18.664;2023-05-10T12:28:08;21.70;36.30
18321;DHT22;54904;54.350;18.664;2023-05-10T12:30:36;21.80;36.60
18321;DHT22;54904;54.350;18.664;2023-05-10T12:33:08;21.80;36.50
18321;DHT22;54904;54.350;18.664;2023-05-10T12:35:44;21.80;36.40
18321;DHT22;54904;54.350;18.664;2023-05-10T12:38:36;21.90;36.60
18321;DHT22;54904;54.350;18.664;2023-05-10T12:41:05;21.90;36.60
18321;DHT22;54904;54.350;18.664;2023-05-10T12:43:34;22.00;36.30
18321;DHT22;54904;54.350;18.664;2023-05-10T12:46:06;22.00;36.20
18321;DHT22;54904;54.350;18.664;2023-05-10T12:48:33;22.00;35.60
18321;DHT22;54904;54.350;18.664;2023-05-10T12:51:01;22.00;35.70
18321;DHT22;54904;54.350;18.664;2023-05-10T12:53:28;22.00;35.60
18321;DHT22;54904;54.350;18.664;2023-05-10T12:55:55;22.00;35.20
18321;DHT22;54904;54.350;18.664;2023-05-10T12:58:23;21.90;35.20
18321;DHT22;54904;54.350;18.664;2023-05-10T13:00:51;21.90;35.30
18321;DHT22;54904;54.350;18.664;2023-05-10T13:03:22;21.90;34.90
18321;DHT22;54904;54.350;18.664;2023-05-10T13:05:50;21.80;34.40
18321;DHT22;54904;54.350;18.664;2023-05-10T13:08:17;21.80;34.70
18321;DHT22;54904;54.350;18.664;2023-05-10T13:10:44;21.80;34.20
18321;DHT22;54904;54.350;18.664;2023-05-10T13:13:12;21.80;34.00
18321;DHT22;54904;54.350;18.664;2023-05-10T13:15:39;21.80;34.20
18321;DHT22;54904;54.350;18.664;2023-05-10T13:18:07;21.80;34.20
18321;DHT22;54904;54.350;18.664;2023-05-10T13:20:36;21.90;34.40
18321;DHT22;54904;54.350;18.664;2023-05-10T13:23:04;21.90;34.70
18321;DHT22;54904;54.350;18.664;2023-05-10T13:25:35;22.00;34.80
18321;DHT22;54904;54.350;18.664;2023-05-10T13:28:02;22.00;34.50
18321;DHT22;54904;54.350;18.664;2023-05-10T13:30:30;22.00;33.90
18321;DHT22;54904;54.350;18.664;2023-05-10T13:32:57;22.00;34.20
18321;DHT22;54904;54.350;18.664;2023-05-10T13:35:26;22.00;33.70
18321;DHT22;54904;54.350;18.664;2023-05-10T13:37:54;22.00;34.00
18321;DHT22;54904;54.350;18.664;2023-05-10T13:40:23;21.90;33.80
18321;DHT22;54904;54.350;18.664;2023-05-10T13:42:51;22.00;34.10
18321;DHT22;54904;54.350;18.664;2023-05-10T13:45:18;22.00;34.20
18321;DHT22;54904;54.350;18.664;2023-05-10T13:47:46;22.00;34.20
18321;DHT22;54904;54.350;18.664;2023-05-10T13:50:13;21.90;34.30
18321;DHT22;54904;54.350;18.664;2023-05-10T13:52:42;22.00;34.30
18321;DHT22;54904;54.350;18.664;2023-05-10T13:55:10;22.00;34.50
18321;DHT22;54904;54.350;18.664;2023-05-10T13:57:38;22.00;34.70
18321;DHT22;54904;54.350;18.664;2023-05-10T14:00:06;22.00;35.00
18321;DHT22;54904;54.350;18.664;2023-05-10T14:02:33;22.00;35.00
18321;DHT22;54904;54.350;18.664;2023-05-10T14:05:01;22.10;35.40
18321;DHT22;54904;54.350;18.664;2023-05-10T14:07:28;22.10;35.30
18321;DHT22;54904;54.350;18.664;2023-05-10T14:09:58;22.10;35.30
18321;DHT22;54904;54.350;18.664;2023-05-10T14:12:25;22.20;35.40
18321;DHT22;54904;54.350;18.664;2023-05-10T14:14:52;22.10;34.50
18321;DHT22;54904;54.350;18.664;2023-05-10T14:17:20;22.10;34.20
18321;DHT22;54904;54.350;18.664;2023-05-10T14:19:48;22.00;34.20
18321;DHT22;54904;54.350;18.664;2023-05-10T14:22:15;22.10;34.50
18321;DHT22;54904;54.350;18.664;2023-05-10T14:24:45;22.10;34.80
18321;DHT22;54904;54.350;18.664;2023-05-10T14:27:14;22.10;36.10
18321;DHT22;54904;54.350;18.664;2023-05-10T14:29:42;22.10;35.20
18321;DHT22;54904;54.350;18.664;2023-05-10T14:32:09;22.10;35.10
18321;DHT22;54904;54.350;18.664;2023-05-10T14:34:37;22.10;34.90
18321;DHT22;54904;54.350;18.664;2023-05-10T14:37:05;22.10;35.00
18321;DHT22;54904;54.350;18.664;2023-05-10T14:39:32;22.10;34.80
18321;DHT22;54904;54.350;18.664;2023-05-10T14:41:59;22.10;34.70
18321;DHT22;54904;54.350;18.664;2023-05-10T14:44:29;22.10;35.00
18321;DHT22;54904;54.350;18.664;2023-05-10T14:46:57;22.10;34.20
18321;DHT22;54904;54.350;18.664;2023-05-10T14:49:24;22.00;33.70
18321;DHT22;54904;54.350;18.664;2023-05-10T14:51:53;22.00;34.00
18321;DHT22;54904;54.350;18.664;2023-05-10T14:54:21;22.00;34.00
18321;DHT22;54904;54.350;18.664;2023-05-10T14:56:48;21.90;33.50
18321;DHT22;54904;54.350;18.664;2023-05-10T14:59:16;22.30;46.40
18321;DHT22;54904;54.350;18.664;2023-05-10T15:01:45;21.80;34.90
18321;DHT22;54904;54.350;18.664;2023-05-10T15:04:12;21.90;34.40
18321;DHT22;54904;54.350;18.664;2023-05-10T15:06:42;21.80;34.10
18321;DHT22;54904;54.350;18.664;2023-05-10T15:09:09;21.80;34.30
18321;DHT22;54904;54.350;18.664;2023-05-10T15:11:36;21.80;34.60
18321;DHT22;54904;54.350;18.664;2023-05-10T15:14:04;22.30;57.60
18321;DHT22;54904;54.350;18.664;2023-05-10T15:16:31;21.70;34.00
18321;DHT22;54904;54.350;18.664;2023-05-10T15:19:02;22.00;47.10
18321;DHT22;54904;54.350;18.664;2023-05-10T15:21:30;21.60;34.10
18321;DHT22;54904;54.350;18.664;2023-05-10T15:24:00;21.60;34.10
18321;DHT22;54904;54.350;18.664;2023-05-10T15:26:28;21.60;34.20
18321;DHT22;54904;54.350;18.664;2023-05-10T15:28:55;21.50;34.20